Winnett, MT (59087)

5:21 PM MDT on August 27, 2014 (GMT -0600)
RAWS DRY BLOOD CREEK MT US | Change Station
CLOSE
Current Station
Personal Weather Station
Location: Teigen, MT
Elevation: 3152 ft
Nearby Weather Stations
Active Advisory: Areal Flood Advisory

Elev 3152 ft 47.24 °N, 108.36 °W | Updated 40 minutes ago

Clear
Clear
84 °F
Feels Like 82 °F
N
4
Wind Variable Wind from NNE
Gusts 9.0 mph

Today
High -- | Low -- °F
--% Chance of Precip.
Yesterday
High -- | Low -- °F
Precip. -- in
6:26 AM 8:01 PM
Waxing Crescent, 5% visible
Pressure 29.95 in
Visibility 10.0 miles
Clouds Clear
Heat Index 82 °F
Dew Point 46 °F
Humidity 27%
Rainfall 0.00 in
Snow Depth Not available.
UV 4 out of 12
Pollen 8.50 out of 12
Air Quality Not available.
Flu Activity Not available.
METAR KLWT 272254Z AUTO 30009KT 10SM CLR 28/06 A3005 RMK AO2 SLP142 T02780061

More Conditions Fewer Conditions

Pressure 29.95 in
Visibility 10.0 miles
Clouds Clear
Heat Index 82 °F
Dew Point 46 °F
Humidity 27%
Rainfall 0.00 in
Snow Depth Not available.
UV 4 out of 12
Pollen 8.50 out of 12
Air Quality Not available.
Flu Activity Not available.
METAR KLWT 272254Z AUTO 30009KT 10SM CLR 28/06 A3005 RMK AO2 SLP142 T02780061

More Conditions Fewer Conditions

10-Day Weather Forecast

Almanac

Astronomy

Aug. 27, 2014 Rise Set
Actual Time 6:26 AM MDT 8:01 PM MDT
Civil Twilight 5:54 AM MDT 8:33 PM MDT
Nautical Twilight 5:15 AM MDT 9:12 PM MDT
Astronomical Twilight 4:33 AM MDT 9:54 PM MDT
Moon 8:35 AM MDT 8:43 PM MDT
Length of Visible Light 14h 39m
Length of Day
13h 35m
Tomorrow will be 3m 11s shorter.
Waxing Crescent, 5% of the Moon is Illuminated
Today
Waxing Crescent
Sep 2
First Quarter
Sep 8
Full
Sep 15
Last Quarter
Sep 24
New

Today's Extremes

State Highs State Lows

Community

WunderPhotos

Upload Photos

1,747,816 photos uploaded!

Nearby

Snow Depth

Station Depth Elevation
Crystal Lake 0 in 6050 ft
Porcupine 0 in 6500 ft
Sacajawea 0 in 6550 ft
Monument Peak 0 in 8850 ft
White Mill 1 in 8700 ft

Earthquake Activity

City Distance Mag. Time & Date
No recent earthquake activity has been reported nearby.
Minimum magnitude displayed is 2.5.

Coastal Water Temperatures

Place Temperature
No Stations Reporting

Nearby Weather Stations